Terminal Aerodrome Forecast
Issued by NWS Jacksonville, FL

Home | Current Version | Previous Version | Text Only | Print | Product List | Glossary On
Versions: 1 2 3 4 5 6 7 8 9 10 11 12
000
FTUS42 KJAX 211700
TAFSSI
TAF
KSSI 211720Z 2118/2218 07009KT P6SM SKC
     FM220200 04007KT P6SM SCT250
     FM220500 05009KT P6SM SCT025 BKN035
     FM221100 05010KT P6SM VCSH BKN025
     FM221500 06013G21KT P6SM -SHRA BKN020=

USA.gov is the U.S. government's official web portal to all federal, state and local government web resources and services.